N12KBM KLAX-KSAN
Flight info
| Callsign | N12KBM |
|---|---|
| Flight time | N/A |
| Altitude | VFR |
| Route | VFR |
| Aircraft | PA28/L-VGD/C |
Departure
| Time | 2026-05-03 21:14 |
|---|---|
| Airport | Los Angeles International Airport (KLAX) |
Arrival
| Time | N/A |
|---|---|
| Airport | San Diego International Airport (KSAN) |
| Time | Latitude | Longitude | Altitude | Speed | Heading |
|---|---|---|---|---|---|
| 2026-05-03 21:10 | 33.93362 | -118.39801 | 120 ft | 0 kts | 260° |
| 2026-05-03 21:11 | 33.93361 | -118.39808 | 120 ft | 6 kts | 267° |
| 2026-05-03 21:11 | 33.93406 | -118.39808 | 119 ft | 9 kts | 359° |
| 2026-05-03 21:12 | 33.93409 | -118.39808 | 120 ft | 0 kts | 358° |
| 2026-05-03 21:12 | 33.93419 | -118.39809 | 119 ft | 8 kts | 353° |
| 2026-05-03 21:12 | 33.93472 | -118.39670 | 120 ft | 29 kts | 83° |
| 2026-05-03 21:13 | 33.93494 | -118.39441 | 120 ft | 24 kts | 83° |
| 2026-05-03 21:13 | 33.93538 | -118.39376 | 120 ft | 0 kts | 353° |
| 2026-05-03 21:13 | 33.93539 | -118.39376 | 120 ft | 1 kts | 355° |
| 2026-05-03 21:13 | 33.93615 | -118.39412 | 119 ft | 21 kts | 283° |
| 2026-05-03 21:14 | 33.93575 | -118.39853 | 121 ft | 82 kts | 263° |
| 2026-05-03 21:14 | 33.93512 | -118.40589 | 378 ft | 90 kts | 265° |
| 2026-05-03 21:14 | 33.93457 | -118.41353 | 657 ft | 98 kts | 264° |
| 2026-05-03 21:14 | 33.93373 | -118.42204 | 873 ft | 113 kts | 259° |
| 2026-05-03 21:15 | 33.93162 | -118.43116 | 1229 ft | 109 kts | 238° |
| 2026-05-03 21:15 | 33.92503 | -118.43590 | 1535 ft | 114 kts | 190° |
| 2026-05-03 21:15 | 33.91744 | -118.43558 | 1930 ft | 106 kts | 169° |
| 2026-05-03 21:15 | 33.91046 | -118.43347 | 2277 ft | 108 kts | 166° |
| 2026-05-03 21:16 | 33.90291 | -118.43164 | 2568 ft | 110 kts | 173° |
| 2026-05-03 21:16 | 33.89482 | -118.42985 | 2683 ft | 126 kts | 168° |